Time;durP1;ratioP1;P1;durP2;ratioP2;P2;SDS_P1;SDS_P2;PMS_P1;PMS_P2;Temp;Humidity;BMP_temperature;BMP_pressure;BME280_temperature;BME280_humidity;BME280_pressure;Samples;Min_cycle;Max_cycle;Signal;HPM_P1;HPM_P2
2022/12/31 00:01:24;;;;;;;;;;;;;;;3.03;88.75;100834.28;5072875;28;19993;-36
2022/12/31 00:03:50;;;;;;;;;;;;;;;3.29;91.14;100835.56;5072853;28;19940;-35
2022/12/31 00:06:15;;;;;;;;;;;;;;;2.99;89.44;100832.84;5072739;28;19909;-36
2022/12/31 00:08:41;;;;;;;;;;;;;;;3.11;91.81;100832.66;5072722;28;19916;-36
2022/12/31 00:11:06;;;;;;;;;;;;;;;3.25;90.53;100847.28;5072346;28;19909;-36
2022/12/31 00:13:31;;;;;;;;;;;;;;;3.19;88.91;100852.25;5072411;28;19919;-36
2022/12/31 00:16:14;;;;;;;;;;;;;;;2.97;89.04;100845.31;5072429;28;20467;-36
2022/12/31 00:18:50;;;;;;;;;;;;;;;3.07;90.16;100846.22;5071974;28;19936;-36
2022/12/31 00:21:15;;;;;;;;;;;;;;;2.87;89.27;100847.84;5072490;28;19947;-37
2022/12/31 00:23:41;;;;;;;;;;;;;;;2.80;91.01;100847.53;5072256;28;19947;-36
2022/12/31 00:26:14;;;;;;;;;;;;;;;2.84;91.02;100856.03;5072333;28;19915;-37
2022/12/31 00:28:39;;;;;;;;;;;;;;;2.87;90.22;100847.84;5072061;28;19987;-36
2022/12/31 00:31:09;;;;;;;;;;;;;;;2.79;89.79;100843.22;5071321;28;20011;-36
2022/12/31 00:33:34;;;;;;;;;;;;;;;2.86;89.20;100854.09;5071964;28;20355;-36
2022/12/31 00:36:03;;;;;;;;;;;;;;;2.82;90.09;100857.91;5072124;28;19908;-36
2022/12/31 00:38:29;;;;;;;;;;;;;;;2.91;90.71;100867.69;5071796;28;19915;-37
2022/12/31 00:40:54;;;;;;;;;;;;;;;3.11;90.34;100871.31;5072125;28;19909;-38
2022/12/31 00:43:19;;;;;;;;;;;;;;;3.28;89.32;100869.91;5072092;28;19982;-41
2022/12/31 00:45:44;;;;;;;;;;;;;;;3.04;89.45;100863.06;5072017;28;19916;-37
2022/12/31 00:48:10;;;;;;;;;;;;;;;3.09;89.93;100867.97;5071994;28;19989;-38
2022/12/31 00:50:35;;;;;;;;;;;;;;;3.27;89.01;100868.22;5071761;28;19909;-38
2022/12/31 00:53:00;;;;;;;;;;;;;;;3.19;88.49;100868.03;5071772;28;19961;-38
2022/12/31 00:55:25;;;;;;;;;;;;;;;3.10;88.53;100861.72;5071528;28;20456;-37
2022/12/31 00:57:51;;;;;;;;;;;;;;;2.89;89.15;100866.97;5071657;28;19908;-37
2022/12/31 01:00:16;;;;;;;;;;;;;;;2.79;89.82;100866.91;5071750;28;19965;-37
2022/12/31 01:02:41;;;;;;;;;;;;;;;2.72;89.96;100870.97;5071572;28;19952;-37
2022/12/31 01:05:07;;;;;;;;;;;;;;;2.74;89.91;100872.53;5071480;28;20457;-37
2022/12/31 01:07:32;;;;;;;;;;;;;;;2.74;90.52;100876.94;5071628;28;19922;-37
2022/12/31 01:09:57;;;;;;;;;;;;;;;2.78;90.10;100880.16;5071237;28;20369;-37
2022/12/31 01:12:23;;;;;;;;;;;;;;;2.99;89.55;100877.56;5071268;28;19951;-37
2022/12/31 01:14:48;;;;;;;;;;;;;;;2.89;89.84;100880.13;5071384;28;20392;-37
2022/12/31 01:17:14;;;;;;;;;;;;;;;2.87;89.00;100880.25;5071324;28;19955;-37
2022/12/31 01:19:39;;;;;;;;;;;;;;;2.69;88.84;100890.47;5070875;28;20462;-37
2022/12/31 01:22:04;;;;;;;;;;;;;;;2.60;89.52;100893.84;5071390;28;19930;-37
2022/12/31 01:24:29;;;;;;;;;;;;;;;2.50;89.14;100853.50;5071132;28;19908;-37
2022/12/31 01:26:56;;;;;;;;;;;;;;;2.81;91.47;100885.19;5071142;28;19908;-37
2022/12/31 01:29:22;;;;;;;;;;;;;;;3.14;89.79;100868.41;5070878;28;19908;-37
2022/12/31 01:31:47;;;;;;;;;;;;;;;2.92;89.58;100864.09;5070828;28;20058;-37
2022/12/31 01:34:12;;;;;;;;;;;;;;;2.99;89.70;100861.78;5071030;28;19908;-37
2022/12/31 01:36:37;;;;;;;;;;;;;;;2.94;88.74;100862.19;5069680;28;20041;-37
2022/12/31 01:39:05;;;;;;;;;;;;;;;2.91;89.50;100860.66;5070684;28;19908;-37
2022/12/31 01:41:34;;;;;;;;;;;;;;;2.97;88.73;100856.69;5070599;28;19909;-37
2022/12/31 01:44:12;;;;;;;;;;;;;;;2.88;88.80;100857.44;5071317;28;19911;-37
2022/12/31 01:46:40;;;;;;;;;;;;;;;2.91;89.08;100863.28;5070978;28;19919;-36
2022/12/31 01:49:14;;;;;;;;;;;;;;;2.87;89.48;100853.13;5071097;28;20026;-36
2022/12/31 01:51:41;;;;;;;;;;;;;;;2.89;88.30;100862.56;5070740;28;19909;-36
2022/12/31 01:54:08;;;;;;;;;;;;;;;2.53;88.29;100875.13;5070891;28;20023;-37
2022/12/31 01:56:34;;;;;;;;;;;;;;;2.34;89.66;100877.53;5071543;28;19908;-36
2022/12/31 01:58:59;;;;;;;;;;;;;;;2.39;90.31;100875.38;5071538;28;19908;-36
2022/12/31 02:01:28;;;;;;;;;;;;;;;2.41;88.90;100875.25;5071255;28;20405;-36
2022/12/31 02:03:54;;;;;;;;;;;;;;;2.34;89.20;100880.16;5071236;28;20368;-37
2022/12/31 02:06:21;;;;;;;;;;;;;;;2.33;89.88;100874.06;5071587;28;20374;-37
2022/12/31 02:08:47;;;;;;;;;;;;;;;2.39;89.45;100882.44;5070852;28;20352;-36
2022/12/31 02:11:21;;;;;;;;;;;;;;;2.41;88.68;100872.63;5071680;28;19931;-37
2022/12/31 02:13:47;;;;;;;;;;;;;;;2.46;88.54;100878.38;5071126;28;19943;-36
2022/12/31 02:16:18;;;;;;;;;;;;;;;2.44;89.07;100870.59;5070971;28;20351;-36
2022/12/31 02:19:09;;;;;;;;;;;;;;;2.54;89.48;100870.69;5070974;28;19920;-36
2022/12/31 02:21:44;;;;;;;;;;;;;;;2.60;86.53;100867.56;5047537;28;20597;-38
2022/12/31 02:24:35;;;;;;;;;;;;;;;2.48;86.34;100866.75;5071399;28;19908;-36
2022/12/31 02:27:07;;;;;;;;;;;;;;;2.34;87.38;100867.03;5068032;28;20073;-36
2022/12/31 02:29:51;;;;;;;;;;;;;;;2.23;88.53;100865.28;5071041;28;19908;-36
2022/12/31 02:32:18;;;;;;;;;;;;;;;2.24;88.59;100874.81;5070999;28;19919;-36
2022/12/31 02:34:47;;;;;;;;;;;;;;;2.30;89.85;100862.97;5071066;28;19916;-36
2022/12/31 02:37:14;;;;;;;;;;;;;;;2.63;88.48;100866.50;5071262;28;20248;-37
2022/12/31 02:39:40;;;;;;;;;;;;;;;2.36;87.01;100865.09;5071023;28;19952;-36
2022/12/31 02:42:05;;;;;;;;;;;;;;;2.17;88.63;100865.75;5070986;28;19958;-36
2022/12/31 02:44:34;;;;;;;;;;;;;;;2.31;89.16;100867.28;5071023;28;19908;-36
2022/12/31 02:47:15;;;;;;;;;;;;;;;2.51;88.31;100866.53;5071012;28;19975;-36
2022/12/31 02:49:59;;;;;;;;;;;;;;;2.36;87.58;100870.34;5070807;28;19936;-36
2022/12/31 02:52:24;;;;;;;;;;;;;;;2.30;87.45;100863.81;5070723;28;19922;-36
2022/12/31 02:55:08;;;;;;;;;;;;;;;2.18;87.93;100866.59;5073760;28;19999;-36
2022/12/31 02:57:39;;;;;;;;;;;;;;;2.31;87.80;100862.03;5074909;28;19920;-36
2022/12/31 03:02:57;;;;;;;;;;;;;;;2.35;88.46;100879.22;5074643;28;20009;-36
2022/12/31 03:05:24;;;;;;;;;;;;;;;2.48;88.43;100885.16;5074357;28;19923;-36
2022/12/31 03:07:49;;;;;;;;;;;;;;;2.46;88.56;100886.25;5074389;28;19908;-36
2022/12/31 03:10:15;;;;;;;;;;;;;;;2.57;87.93;100895.88;5074456;28;20058;-36
2022/12/31 03:12:47;;;;;;;;;;;;;;;2.57;86.62;100888.00;5074201;28;19912;-36
2022/12/31 03:15:20;;;;;;;;;;;;;;;2.34;88.43;100894.16;5073724;28;19908;-36
2022/12/31 03:18:02;;;;;;;;;;;;;;;2.29;88.19;100892.84;5074490;28;19924;-36
2022/12/31 03:23:24;;;;;;;;;;;;;;;2.01;88.47;100889.75;5054413;28;19927;-36
2022/12/31 03:25:50;;;;;;;;;;;;;;;2.06;88.25;100906.00;5054203;28;19916;-36
2022/12/31 03:28:19;;;;;;;;;;;;;;;1.91;89.50;100899.31;5053844;28;20276;-36
2022/12/31 03:30:46;;;;;;;;;;;;;;;1.99;89.94;100899.53;5054021;28;19912;-36
2022/12/31 03:33:11;;;;;;;;;;;;;;;1.95;90.09;100903.34;5054145;28;19919;-36
2022/12/31 03:35:37;;;;;;;;;;;;;;;1.74;90.93;100905.84;5053803;28;20279;-36
2022/12/31 03:38:03;;;;;;;;;;;;;;;1.87;90.19;100911.84;5054066;28;19909;-36
2022/12/31 03:40:29;;;;;;;;;;;;;;;1.79;89.44;100903.72;5053548;28;20015;-36
2022/12/31 03:42:54;;;;;;;;;;;;;;;2.08;87.36;100917.22;5053767;28;19912;-36
2022/12/31 03:45:19;;;;;;;;;;;;;;;2.17;87.04;100922.69;5053928;28;19913;-36
2022/12/31 03:47:45;;;;;;;;;;;;;;;1.90;86.93;100914.19;5053686;28;19908;-36
2022/12/31 03:50:11;;;;;;;;;;;;;;;1.79;88.40;100921.25;5053889;28;19909;-37
2022/12/31 03:52:37;;;;;;;;;;;;;;;1.85;88.25;100912.91;5053765;28;19916;-36
2022/12/31 03:55:03;;;;;;;;;;;;;;;2.11;86.33;100919.59;5053030;28;20514;-36
2022/12/31 03:57:28;;;;;;;;;;;;;;;2.49;84.46;100918.34;5053744;28;19916;-36
2022/12/31 03:59:54;;;;;;;;;;;;;;;2.56;83.61;100912.63;5053517;28;19920;-36
2022/12/31 04:02:19;;;;;;;;;;;;;;;2.11;86.02;100901.22;5053619;28;19908;-36
2022/12/31 04:04:44;;;;;;;;;;;;;;;1.82;87.04;100900.84;5053484;28;19913;-37
2022/12/31 04:07:09;;;;;;;;;;;;;;;1.57;88.81;100896.66;5085472;28;20348;-37
2022/12/31 04:09:35;;;;;;;;;;;;;;;2.14;87.00;100906.22;5053299;28;19912;-37
2022/12/31 04:12:00;;;;;;;;;;;;;;;2.50;82.81;100906.88;5053205;28;20296;-37
2022/12/31 04:14:25;;;;;;;;;;;;;;;2.10;84.57;100911.84;5053225;28;19909;-37
2022/12/31 04:16:51;;;;;;;;;;;;;;;2.11;85.33;100922.22;5053390;28;19908;-38
2022/12/31 04:19:16;;;;;;;;;;;;;;;2.07;84.76;100917.31;5064410;28;19930;-37
2022/12/31 04:21:41;;;;;;;;;;;;;;;2.37;83.57;100919.34;5073159;28;19909;-37
2022/12/31 04:24:07;;;;;;;;;;;;;;;2.87;80.11;100918.84;5073728;28;20364;-37
2022/12/31 04:26:32;;;;;;;;;;;;;;;2.94;77.81;100907.72;5073518;28;19912;-38
2022/12/31 04:28:58;;;;;;;;;;;;;;;2.92;78.33;100917.50;5073513;28;20308;-38
2022/12/31 04:31:23;;;;;;;;;;;;;;;3.11;77.53;100911.59;5072140;28;19952;-37
2022/12/31 04:33:49;;;;;;;;;;;;;;;2.84;77.48;100911.22;5071430;28;19913;-36
2022/12/31 04:36:14;;;;;;;;;;;;;;;2.66;79.05;100917.00;5073243;28;19912;-37
2022/12/31 04:38:39;;;;;;;;;;;;;;;2.73;79.12;100923.44;5073676;28;20330;-37
2022/12/31 04:41:17;;;;;;;;;;;;;;;2.95;77.86;100919.06;5073281;28;19995;-38
2022/12/31 04:43:43;;;;;;;;;;;;;;;2.67;80.38;100923.94;5073209;28;20308;-37
2022/12/31 04:46:09;;;;;;;;;;;;;;;2.85;80.52;100916.34;5073064;28;20374;-35
2022/12/31 04:48:34;;;;;;;;;;;;;;;2.73;80.53;100923.44;5072836;28;19912;-37
2022/12/31 04:50:59;;;;;;;;;;;;;;;2.42;81.61;100924.22;5072989;28;19908;-37
2022/12/31 04:53:25;;;;;;;;;;;;;;;2.94;78.67;100925.28;5072790;28;19912;-36
2022/12/31 04:55:51;;;;;;;;;;;;;;;3.15;77.37;100920.06;5072963;28;19908;-37
2022/12/31 04:58:16;;;;;;;;;;;;;;;2.50;79.33;100925.28;5072946;28;19987;-38
2022/12/31 05:00:43;;;;;;;;;;;;;;;2.77;78.54;100933.72;5072995;28;19931;-36
2022/12/31 05:03:08;;;;;;;;;;;;;;;2.70;78.95;100928.09;5072928;28;19987;-38
2022/12/31 05:05:37;;;;;;;;;;;;;;;3.00;78.26;100929.22;5072370;28;20387;-37
2022/12/31 05:08:03;;;;;;;;;;;;;;;3.05;78.07;100933.13;5072753;28;20020;-37
2022/12/31 05:10:28;;;;;;;;;;;;;;;3.33;76.83;100926.44;5072563;28;19955;-38
2022/12/31 05:12:53;;;;;;;;;;;;;;;3.45;77.82;100929.84;5072907;28;19922;-38
2022/12/31 05:15:19;;;;;;;;;;;;;;;2.84;81.03;100940.97;5072701;28;20367;-38
2022/12/31 05:17:44;;;;;;;;;;;;;;;2.69;82.47;100937.78;5072259;28;19967;-37
2022/12/31 05:20:09;;;;;;;;;;;;;;;2.49;82.16;100952.50;5071511;28;19927;-35
2022/12/31 05:22:35;;;;;;;;;;;;;;;3.21;80.86;100958.19;5071615;28;20284;-36
2022/12/31 05:25:00;;;;;;;;;;;;;;;3.77;78.31;100949.16;5072094;28;20014;-37
2022/12/31 05:27:29;;;;;;;;;;;;;;;4.08;76.64;100950.00;5071931;28;20030;-36
2022/12/31 05:29:55;;;;;;;;;;;;;;;4.64;74.68;100960.03;5071740;28;20291;-36
2022/12/31 05:32:20;;;;;;;;;;;;;;;3.94;79.50;100953.84;5071589;28;19995;-35
2022/12/31 05:34:45;;;;;;;;;;;;;;;3.52;79.11;100953.84;5071494;28;19912;-36
2022/12/31 05:37:10;;;;;;;;;;;;;;;2.85;79.86;100957.59;5072034;28;19943;-36
2022/12/31 05:39:36;;;;;;;;;;;;;;;2.42;79.09;100969.72;5071651;28;19969;-36
2022/12/31 05:42:01;;;;;;;;;;;;;;;2.66;81.08;100969.56;5071709;28;19916;-36
2022/12/31 05:44:26;;;;;;;;;;;;;;;3.20;81.47;100977.53;5071563;28;20483;-36
2022/12/31 05:46:51;;;;;;;;;;;;;;;2.83;83.05;100981.38;5071651;28;20015;-36
2022/12/31 05:49:17;;;;;;;;;;;;;;;2.45;83.26;100981.78;5071233;28;19915;-36
2022/12/31 05:51:42;;;;;;;;;;;;;;;2.42;85.41;100988.13;5071381;28;19996;-36
2022/12/31 05:54:07;;;;;;;;;;;;;;;2.52;86.04;100982.97;5071667;28;20351;-36
2022/12/31 05:56:33;;;;;;;;;;;;;;;3.29;82.86;100982.91;5071425;28;19915;-37
2022/12/31 05:58:58;;;;;;;;;;;;;;;2.79;84.18;100982.56;5071281;28;20094;-37
2022/12/31 06:01:23;;;;;;;;;;;;;;;2.62;84.65;100980.47;5071291;28;19916;-37
2022/12/31 06:03:48;;;;;;;;;;;;;;;2.33;85.69;100986.22;5071456;28;19917;-36
2022/12/31 06:06:14;;;;;;;;;;;;;;;2.44;85.89;100995.91;5071401;28;19922;-36
2022/12/31 06:08:39;;;;;;;;;;;;;;;2.51;85.45;101005.81;5071194;28;19900;-36
2022/12/31 06:11:04;;;;;;;;;;;;;;;2.39;86.17;100998.88;5071223;28;19959;-36
2022/12/31 06:13:30;;;;;;;;;;;;;;;2.38;86.49;101001.59;5064755;28;19916;-36
2022/12/31 06:15:55;;;;;;;;;;;;;;;2.27;86.99;100994.56;5057170;28;19935;-37
2022/12/31 06:18:20;;;;;;;;;;;;;;;2.22;87.24;101000.16;5054846;28;19913;-36
2022/12/31 06:20:45;;;;;;;;;;;;;;;2.40;87.41;101000.56;5070984;28;20343;-36
2022/12/31 06:23:11;;;;;;;;;;;;;;;2.44;86.77;101001.16;5071056;28;20398;-36
2022/12/31 06:25:36;;;;;;;;;;;;;;;2.47;86.43;100995.63;5070858;28;19950;-37
2022/12/31 06:28:04;;;;;;;;;;;;;;;2.59;85.76;101002.56;5071040;28;20418;-37
2022/12/31 06:30:30;;;;;;;;;;;;;;;2.73;84.91;100999.66;5074922;28;20325;-36
2022/12/31 06:32:55;;;;;;;;;;;;;;;2.68;86.27;101004.44;5074932;28;19912;-36
2022/12/31 06:35:21;;;;;;;;;;;;;;;2.57;87.09;101012.38;5074625;28;19914;-36
2022/12/31 06:37:46;;;;;;;;;;;;;;;2.53;86.46;101018.78;5075089;28;19908;-35
2022/12/31 06:40:12;;;;;;;;;;;;;;;2.38;88.17;101014.75;5074165;28;19916;-36
2022/12/31 06:42:37;;;;;;;;;;;;;;;2.62;86.70;101017.25;5073947;28;19915;-36
2022/12/31 06:45:03;;;;;;;;;;;;;;;2.79;85.55;101019.38;5073755;28;20479;-37
2022/12/31 06:47:28;;;;;;;;;;;;;;;2.88;85.93;101025.72;5073652;28;19908;-37
2022/12/31 06:49:53;;;;;;;;;;;;;;;3.04;85.01;101034.03;5073671;28;19908;-37
2022/12/31 06:52:19;;;;;;;;;;;;;;;2.87;84.95;101038.00;5073522;28;19919;-37
2022/12/31 06:54:45;;;;;;;;;;;;;;;2.67;85.83;101036.13;5073690;28;19916;-37
2022/12/31 06:57:10;;;;;;;;;;;;;;;2.66;85.65;101037.91;5073617;28;19995;-36
2022/12/31 06:59:36;;;;;;;;;;;;;;;2.58;86.59;101028.97;5073948;28;19959;-36
2022/12/31 07:02:12;;;;;;;;;;;;;;;2.74;86.04;101032.91;5072288;28;19966;-37
2022/12/31 07:04:46;;;;;;;;;;;;;;;2.89;85.94;101036.13;5065407;28;20019;-37
2022/12/31 07:07:11;;;;;;;;;;;;;;;3.08;85.59;101045.16;5068416;28;19912;-37
2022/12/31 07:09:43;;;;;;;;;;;;;;;3.10;85.69;101036.19;5072768;28;19930;-36
2022/12/31 07:12:27;;;;;;;;;;;;;;;3.48;89.36;101040.13;5073546;28;19919;-36
2022/12/31 07:15:19;;;;;;;;;;;;;;;3.52;86.13;101036.28;5073790;28;19958;-36
2022/12/31 07:17:47;;;;;;;;;;;;;;;3.61;85.03;101039.13;5042401;28;20336;-37
2022/12/31 07:20:14;;;;;;;;;;;;;;;8.25;100.00;101053.78;5071952;28;19986;-36
2022/12/31 07:22:39;;;;;;;;;;;;;;;6.99;81.63;101048.56;5073409;28;19914;-36
2022/12/31 07:25:05;;;;;;;;;;;;;;;8.01;69.31;101060.59;5072518;28;19912;-36
2022/12/31 07:27:49;;;;;;;;;;;;;;;6.42;72.37;101053.97;5072335;28;19955;-40
2022/12/31 07:30:18;;;;;;;;;;;;;;;5.71;75.50;101061.41;5073208;28;19912;-36
2022/12/31 07:32:59;;;;;;;;;;;;;;;5.22;77.51;101059.59;5072526;28;19912;-36
2022/12/31 07:35:40;;;;;;;;;;;;;;;4.98;79.73;101065.22;5072881;28;19912;-37
2022/12/31 07:38:26;;;;;;;;;;;;;;;5.54;84.57;101060.31;5072925;28;19915;-36
2022/12/31 07:40:54;;;;;;;;;;;;;;;5.76;80.33;101067.97;5071900;28;19908;-35
2022/12/31 07:43:38;;;;;;;;;;;;;;;5.77;78.14;101067.00;5073285;28;20341;-37
2022/12/31 07:46:12;;;;;;;;;;;;;;;5.75;79.61;101070.72;5072860;28;19908;-36
2022/12/31 07:48:38;;;;;;;;;;;;;;;5.59;78.23;101066.84;5073195;28;19908;-37
2022/12/31 07:51:03;;;;;;;;;;;;;;;6.32;80.94;101069.03;5073215;28;19931;-36
2022/12/31 07:53:29;;;;;;;;;;;;;;;6.52;76.61;101074.25;5073081;28;19919;-37
2022/12/31 07:55:56;;;;;;;;;;;;;;;7.06;74.87;101075.25;5072690;28;20253;-37
2022/12/31 07:58:28;;;;;;;;;;;;;;;7.29;73.05;101078.34;5072661;28;20384;-36
2022/12/31 08:00:54;;;;;;;;;;;;;;;7.43;72.33;101075.16;5072492;28;19918;-36
2022/12/31 08:03:38;;;;;;;;;;;;;;;8.25;72.14;101082.16;5072509;28;19931;-36
2022/12/31 08:06:13;;;;;;;;;;;;;;;8.91;68.63;101083.34;5072813;28;20394;-37
2022/12/31 08:08:45;;;;;;;;;;;;;;;9.54;65.91;101077.56;5072894;28;19915;-36
2022/12/31 08:11:23;;;;;;;;;;;;;;;9.79;63.74;101074.91;5072403;28;19909;-37
2022/12/31 08:13:49;;;;;;;;;;;;;;;10.30;62.65;101085.34;5072402;28;19912;-36
2022/12/31 08:16:14;;;;;;;;;;;;;;;10.44;61.85;101073.22;5072519;28;19908;-36
2022/12/31 08:18:40;;;;;;;;;;;;;;;10.69;60.55;101087.28;5072521;28;21092;-36
2022/12/31 08:21:08;;;;;;;;;;;;;;;11.00;58.98;101087.31;5072219;28;19908;-38
2022/12/31 08:23:55;;;;;;;;;;;;;;;10.56;59.55;101083.31;5072307;28;19916;-36
2022/12/31 08:26:33;;;;;;;;;;;;;;;10.17;61.20;101077.88;5072408;28;20004;-36
2022/12/31 08:28:58;;;;;;;;;;;;;;;9.88;61.03;101083.69;5072311;28;19912;-36
2022/12/31 08:31:59;;;;;;;;;;;;;;;9.88;62.64;101087.22;5071961;28;20397;-36
2022/12/31 08:34:30;;;;;;;;;;;;;;;9.91;62.30;101094.03;5026638;28;19921;-36
2022/12/31 08:36:58;;;;;;;;;;;;;;;10.02;62.14;101091.03;5061508;28;19952;-36
2022/12/31 08:39:33;;;;;;;;;;;;;;;9.72;63.00;101090.69;5071914;28;19912;-37
2022/12/31 08:42:02;;;;;;;;;;;;;;;9.57;63.06;101092.31;5071305;28;19915;-39
2022/12/31 08:44:36;;;;;;;;;;;;;;;9.37;64.76;101105.09;5069668;28;19915;-37
2022/12/31 08:47:01;;;;;;;;;;;;;;;9.04;65.51;101098.81;5067443;28;19908;-37
2022/12/31 08:49:28;;;;;;;;;;;;;;;8.99;66.11;101089.53;5071660;28;19908;-37
2022/12/31 08:51:53;;;;;;;;;;;;;;;9.39;64.86;101092.47;5071428;28;19908;-37
2022/12/31 08:54:19;;;;;;;;;;;;;;;9.87;63.87;101082.88;5071195;28;20706;-37
2022/12/31 08:56:47;;;;;;;;;;;;;;;10.04;63.23;101086.38;5072287;28;19935;-37
2022/12/31 08:59:35;;;;;;;;;;;;;;;10.47;61.58;101073.72;5071687;28;19916;-37
2022/12/31 09:02:00;;;;;;;;;;;;;;;10.80;61.00;101070.13;5042649;28;19966;-37
2022/12/31 09:04:40;;;;;;;;;;;;;;;10.72;60.74;101071.81;5071017;28;19944;-36
2022/12/31 09:07:08;;;;;;;;;;;;;;;10.76;60.94;101064.31;5071370;28;19997;-36
2022/12/31 09:09:52;;;;;;;;;;;;;;;11.12;60.51;101061.97;5071416;28;19915;-36
2022/12/31 09:12:24;;;;;;;;;;;;;;;11.05;60.21;101066.31;5071322;28;20470;-38
2022/12/31 09:14:57;;;;;;;;;;;;;;;11.39;58.76;101062.47;5071507;28;20304;-36
2022/12/31 09:17:41;;;;;;;;;;;;;;;11.08;59.65;101054.47;5071959;28;19916;-37
2022/12/31 09:20:12;;;;;;;;;;;;;;;11.31;58.24;101059.88;5070954;28;19998;-36
2022/12/31 09:22:38;;;;;;;;;;;;;;;10.92;59.86;101052.75;5070950;28;19909;-36
2022/12/31 09:25:03;;;;;;;;;;;;;;;11.07;59.95;101050.19;5070573;28;19912;-36
2022/12/31 09:27:42;;;;;;;;;;;;;;;11.49;61.59;101054.25;5062451;28;19913;-36
2022/12/31 09:30:10;;;;;;;;;;;;;;;11.58;58.80;101045.19;5051368;28;19908;-42
2022/12/31 09:32:41;;;;;;;;;;;;;;;12.04;57.50;101036.31;5060350;28;19927;-44
2022/12/31 09:35:11;;;;;;;;;;;;;;;12.12;56.53;101031.72;5070837;28;19923;-42
2022/12/31 09:37:44;;;;;;;;;;;;;;;12.43;55.50;101032.56;5070808;28;19977;-43
2022/12/31 09:40:20;;;;;;;;;;;;;;;12.65;55.43;101025.47;5070496;28;19916;-43
2022/12/31 09:42:57;;;;;;;;;;;;;;;12.81;54.54;101027.09;5070840;28;20404;-42
2022/12/31 09:45:29;;;;;;;;;;;;;;;12.52;55.78;101015.44;5070981;28;19919;-42
2022/12/31 09:48:00;;;;;;;;;;;;;;;12.75;55.08;101009.16;5070738;28;19909;-42
2022/12/31 09:50:31;;;;;;;;;;;;;;;12.71;55.66;101016.72;5069355;28;20014;-43
2022/12/31 09:53:06;;;;;;;;;;;;;;;12.59;55.59;101011.03;5070908;28;20011;-44
2022/12/31 09:55:31;;;;;;;;;;;;;;;12.79;54.36;100997.91;5070662;28;19912;-37
2022/12/31 09:58:15;;;;;;;;;;;;;;;12.64;53.30;100991.75;5059463;28;20219;-36
2022/12/31 10:00:40;;;;;;;;;;;;;;;12.81;52.94;100998.56;5050748;28;19940;-36
2022/12/31 10:03:20;;;;;;;;;;;;;;;13.20;52.33;100991.19;5050290;28;19959;-37
2022/12/31 10:05:59;;;;;;;;;;;;;;;13.29;52.85;100993.53;5050345;28;20433;-36
2022/12/31 10:08:43;;;;;;;;;;;;;;;13.35;52.49;100999.16;5050459;28;19978;-41
2022/12/31 10:11:11;;;;;;;;;;;;;;;13.30;52.57;100994.38;5050525;28;20446;-37
2022/12/31 10:13:54;;;;;;;;;;;;;;;13.20;52.40;100981.31;5050657;28;19912;-37
2022/12/31 10:16:19;;;;;;;;;;;;;;;13.71;50.95;100971.47;5050281;28;19920;-35
2022/12/31 10:18:50;;;;;;;;;;;;;;;13.69;50.46;100966.34;5050264;28;19920;-36
2022/12/31 10:21:15;;;;;;;;;;;;;;;13.44;51.63;100961.41;5050647;28;20297;-36
2022/12/31 10:23:46;;;;;;;;;;;;;;;13.05;52.43;100973.34;5050384;28;19919;-36
2022/12/31 10:26:24;;;;;;;;;;;;;;;13.33;51.90;100975.28;5050826;28;19909;-36
2022/12/31 10:28:52;;;;;;;;;;;;;;;13.17;53.27;100965.63;5050186;28;20357;-36
2022/12/31 10:31:20;;;;;;;;;;;;;;;13.08;53.46;100966.81;5050330;28;20407;-36
2022/12/31 10:33:56;;;;;;;;;;;;;;;13.25;52.79;100962.84;5069598;28;19920;-36
2022/12/31 10:36:39;;;;;;;;;;;;;;;13.07;53.15;100957.94;5063559;28;19923;-37
2022/12/31 10:39:18;;;;;;;;;;;;;;;13.55;51.69;100949.34;5053806;28;19913;-37
2022/12/31 10:41:43;;;;;;;;;;;;;;;13.19;52.46;100946.75;5055252;28;19982;-37
2022/12/31 10:44:27;;;;;;;;;;;;;;;13.69;52.51;100953.78;5070960;28;20319;-37
2022/12/31 10:47:01;;;;;;;;;;;;;;;13.61;50.97;100940.56;5070036;28;19944;-37
2022/12/31 10:49:43;;;;;;;;;;;;;;;13.64;51.01;100945.50;5069826;28;20364;-37
2022/12/31 10:52:32;;;;;;;;;;;;;;;13.16;52.88;100939.94;5049269;28;20257;-37
2022/12/31 10:55:09;;;;;;;;;;;;;;;13.30;52.30;100939.06;5043611;28;19908;-37
2022/12/31 10:57:52;;;;;;;;;;;;;;;13.36;52.34;100936.66;5049970;28;20341;-37
2022/12/31 11:00:21;;;;;;;;;;;;;;;13.54;52.41;100931.66;5049576;28;19940;-37
2022/12/31 11:02:52;;;;;;;;;;;;;;;13.52;53.14;100928.34;5049052;28;19915;-37
2022/12/31 11:05:21;;;;;;;;;;;;;;;13.70;52.50;100930.53;5049483;28;20309;-37
2022/12/31 11:07:55;;;;;;;;;;;;;;;14.09;51.37;100926.47;5049968;28;19909;-37
2022/12/31 11:10:39;;;;;;;;;;;;;;;14.24;50.73;100918.28;5050099;28;19909;-36
2022/12/31 11:13:22;;;;;;;;;;;;;;;14.47;49.96;100924.16;5050474;28;19935;-36
2022/12/31 11:16:19;;;;;;;;;;;;;;;14.55;50.48;100916.97;5053391;28;20007;-36
2022/12/31 11:19:01;;;;;;;;;;;;;;;14.14;52.05;100910.63;5030952;28;20001;-36
2022/12/31 11:21:44;;;;;;;;;;;;;;;14.15;51.81;100908.78;5053931;28;19923;-36
2022/12/31 11:24:28;;;;;;;;;;;;;;;14.36;51.03;100906.00;5054604;28;19916;-37
2022/12/31 11:27:19;;;;;;;;;;;;;;;14.41;50.66;100900.03;5054167;28;19908;-37
2022/12/31 11:30:04;;;;;;;;;;;;;;;14.48;51.23;100903.56;5051890;28;20346;-36
2022/12/31 11:32:35;;;;;;;;;;;;;;;14.53;50.70;100894.94;5062383;28;19919;-37
2022/12/31 11:35:19;;;;;;;;;;;;;;;13.96;52.03;100894.28;5073758;28;19908;-37
2022/12/31 11:37:47;;;;;;;;;;;;;;;14.62;50.87;100891.91;5074555;28;19974;-38
2022/12/31 11:40:31;;;;;;;;;;;;;;;14.55;51.02;100891.03;5074376;28;19933;-38
2022/12/31 11:42:59;;;;;;;;;;;;;;;14.55;51.59;100887.53;5073928;28;19915;-38
2022/12/31 11:45:43;;;;;;;;;;;;;;;14.72;49.91;100888.00;5073934;28;20283;-37
2022/12/31 11:48:14;;;;;;;;;;;;;;;14.67;49.95;100891.28;5073866;28;20096;-37
2022/12/31 11:50:42;;;;;;;;;;;;;;;14.88;49.01;100894.84;5073632;28;19908;-37
2022/12/31 11:53:07;;;;;;;;;;;;;;;15.15;49.38;100887.63;5073219;28;20049;-37
2022/12/31 11:55:50;;;;;;;;;;;;;;;14.76;49.60;100889.25;5073060;28;20531;-38
2022/12/31 11:58:17;;;;;;;;;;;;;;;15.08;48.32;100890.31;5073466;28;19912;-37
2022/12/31 12:01:05;;;;;;;;;;;;;;;14.59;50.35;100891.47;5072939;28;20365;-37
2022/12/31 12:03:31;;;;;;;;;;;;;;;14.67;50.44;100893.97;5064671;28;19908;-38
2022/12/31 12:05:57;;;;;;;;;;;;;;;15.04;49.06;100889.06;5073486;28;19908;-36
2022/12/31 12:08:23;;;;;;;;;;;;;;;14.78;50.07;100890.69;5073333;28;19919;-36
2022/12/31 12:10:51;;;;;;;;;;;;;;;14.70;50.38;100885.53;5073364;28;19908;-38
2022/12/31 12:13:16;;;;;;;;;;;;;;;14.90;49.96;100885.56;5072993;28;20431;-36
2022/12/31 12:15:47;;;;;;;;;;;;;;;14.61;50.59;100881.38;5072895;28;19908;-36
2022/12/31 12:18:39;;;;;;;;;;;;;;;14.63;50.67;100880.13;5072858;28;19916;-36
2022/12/31 12:21:09;;;;;;;;;;;;;;;14.77;50.05;100882.84;5070618;28;19966;-37
2022/12/31 12:23:35;;;;;;;;;;;;;;;14.83;49.77;100880.19;5072970;28;19908;-37
2022/12/31 12:26:01;;;;;;;;;;;;;;;14.76;50.27;100875.84;5071881;28;19919;-37
2022/12/31 12:28:27;;;;;;;;;;;;;;;14.99;49.52;100884.31;5072764;28;19912;-37
2022/12/31 12:30:54;;;;;;;;;;;;;;;15.09;49.17;100877.75;5072639;28;19915;-37
2022/12/31 12:33:20;;;;;;;;;;;;;;;15.37;49.26;100880.22;5070837;28;19976;-37
2022/12/31 12:35:46;;;;;;;;;;;;;;;15.51;49.26;100876.47;5072588;28;19916;-37
2022/12/31 12:38:19;;;;;;;;;;;;;;;15.38;49.23;100882.69;5072917;28;19908;-37
2022/12/31 12:40:55;;;;;;;;;;;;;;;15.28;49.17;100882.28;5072854;28;19908;-37
2022/12/31 12:43:28;;;;;;;;;;;;;;;15.49;47.96;100883.91;5072632;28;19908;-37
2022/12/31 12:45:57;;;;;;;;;;;;;;;14.98;49.91;100882.69;5073181;28;20308;-36
2022/12/31 12:48:29;;;;;;;;;;;;;;;15.22;49.78;100888.47;5071790;28;19918;-37
2022/12/31 12:50:54;;;;;;;;;;;;;;;15.41;49.65;100892.19;5071447;28;19909;-37
2022/12/31 12:53:28;;;;;;;;;;;;;;;15.54;49.08;100884.13;5071245;28;20399;-36
2022/12/31 12:56:17;;;;;;;;;;;;;;;15.53;48.82;100884.31;5065930;28;19915;-37
2022/12/31 12:58:51;;;;;;;;;;;;;;;15.45;48.72;100888.03;5067138;28;19912;-36
2022/12/31 13:01:16;;;;;;;;;;;;;;;15.73;48.27;100887.00;5072581;28;19919;-38
2022/12/31 13:03:41;;;;;;;;;;;;;;;15.67;47.86;100882.44;5072154;28;19908;-38